Time;durP1;ratioP1;P1;durP2;ratioP2;P2;SDS_P1;SDS_P2;PMS_P1;PMS_P2;Temp;Humidity;BMP_temperature;BMP_pressure;BME280_temperature;BME280_humidity;BME280_pressure;Samples;Min_cycle;Max_cycle;Signal;HPM_P1;HPM_P2
2021/12/07 00:00:45;;;;;;;14.85;7.45;;;2.80;99.90;;;;;;5053964;28;20017;-50
2021/12/07 00:03:11;;;;;;;22.67;8.85;;;2.80;99.90;;;;;;5053816;28;20022;-48
2021/12/07 00:05:37;;;;;;;16.25;8.68;;;2.50;99.90;;;;;;5052570;28;20021;-49
2021/12/07 00:08:03;;;;;;;20.25;8.82;;;2.40;99.90;;;;;;5053034;28;20048;-50
2021/12/07 00:10:29;;;;;;;18.10;8.32;;;2.30;99.90;;;;;;5052758;28;20112;-50
2021/12/07 00:12:55;;;;;;;16.88;9.13;;;2.20;99.90;;;;;;5053643;28;20109;-47
2021/12/07 00:15:23;;;;;;;23.30;9.32;;;2.10;99.90;;;;;;5052256;28;20113;-48
2021/12/07 00:17:49;;;;;;;19.13;9.50;;;1.90;99.90;;;;;;5053182;28;20021;-48
2021/12/07 00:20:17;;;;;;;22.45;9.63;;;1.90;99.90;;;;;;5053107;28;20023;-49
2021/12/07 00:22:46;;;;;;;17.80;8.93;;;1.90;99.90;;;;;;5054031;28;20028;-49
2021/12/07 00:25:12;;;;;;;23.88;10.18;;;1.80;99.90;;;;;;5052558;28;20025;-51
2021/12/07 00:27:38;;;;;;;26.60;11.15;;;1.70;99.90;;;;;;5052176;28;20036;-49
2021/12/07 00:30:08;;;;;;;28.20;10.95;;;1.90;99.90;;;;;;5051713;28;20025;-54
2021/12/07 00:32:39;;;;;;;27.27;10.90;;;1.90;99.90;;;;;;5053478;28;20021;-49
2021/12/07 00:35:33;;;;;;;23.35;10.52;;;1.80;99.90;;;;;;5052115;28;20028;-49
2021/12/07 00:38:01;;;;;;;25.00;9.75;;;1.60;99.90;;;;;;5053403;28;20028;-48
2021/12/07 00:40:27;;;;;;;20.52;9.82;;;1.60;99.90;;;;;;5053370;28;20053;-48
2021/12/07 00:42:52;;;;;;;21.58;10.35;;;1.50;99.90;;;;;;5053314;28;20056;-47
2021/12/07 00:45:21;;;;;;;24.20;10.13;;;1.50;99.90;;;;;;5052219;28;20021;-47
2021/12/07 00:47:52;;;;;;;18.02;8.57;;;1.70;99.90;;;;;;5051928;28;20029;-47
2021/12/07 00:50:19;;;;;;;21.35;9.38;;;1.70;99.90;;;;;;5053553;28;20025;-49
2021/12/07 00:52:45;;;;;;;18.15;8.30;;;1.70;99.90;;;;;;5052148;28;20025;-48
2021/12/07 00:55:17;;;;;;;20.35;8.63;;;1.60;99.90;;;;;;5052030;28;20032;-49
2021/12/07 00:57:43;;;;;;;;;;;1.70;99.90;;;;;;5053811;28;20083;-49
2021/12/07 01:00:13;;;;;;;18.67;8.30;;;1.60;99.90;;;;;;5051849;28;19936;-53
2021/12/07 01:02:39;;;;;;;22.73;10.45;;;1.70;99.90;;;;;;5052832;28;20036;-50
2021/12/07 01:05:13;;;;;;;30.10;12.07;;;2.20;99.90;;;;;;5053077;28;20025;-50
2021/12/07 01:26:32;;;;;;;17.67;8.10;;;2.10;99.90;;;;;;5053117;28;20032;-47
2021/12/07 01:28:58;;;;;;;17.05;7.82;;;1.70;99.90;;;;;;5051597;28;20430;-49
2021/12/07 01:31:35;;;;;;;23.63;9.43;;;1.90;99.90;;;;;;5051598;28;20108;-49
2021/12/07 01:52:32;;;;;;;14.23;7.47;;;2.30;99.90;;;;;;5056419;28;20021;-49
2021/12/07 01:58:05;;;;;;;10.77;5.18;;;1.80;99.90;;;;;;5065504;28;20113;-47
2021/12/07 02:00:37;;;;;;;13.98;6.60;;;1.60;99.90;;;;;;5056288;28;20017;-48
2021/12/07 02:03:04;;;;;;;18.33;8.10;;;1.70;99.90;;;;;;5055544;28;20021;-48
2021/12/07 02:05:30;;;;;;;15.73;7.78;;;2.10;99.90;;;;;;5056126;28;20036;-49
2021/12/07 02:07:55;;;;;;;17.42;7.60;;;2.10;99.90;;;;;;5056116;28;20033;-49
2021/12/07 02:10:25;;;;;;;15.20;7.00;;;2.10;99.90;;;;;;5055096;28;20029;-47
2021/12/07 02:12:54;;;;;;;18.77;8.20;;;2.10;99.90;;;;;;5054656;28;20029;-47
2021/12/07 02:15:23;;;;;;;12.23;6.60;;;2.20;99.90;;;;;;5056152;28;20104;-49
2021/12/07 02:17:49;;;;;;;15.10;6.97;;;2.10;99.90;;;;;;5055685;28;20048;-52
2021/12/07 02:20:17;;;;;;;13.52;5.97;;;2.10;99.90;;;;;;5055806;28;20084;-48
2021/12/07 02:22:43;;;;;;;12.00;6.28;;;1.80;99.90;;;;;;5055963;28;20069;-49
2021/12/07 02:25:11;;;;;;;11.32;6.35;;;1.70;99.90;;;;;;5054500;28;20029;-48
2021/12/07 02:27:37;;;;;;;14.13;7.43;;;1.70;99.90;;;;;;5055625;28;20025;-49
2021/12/07 02:30:06;;;;;;;16.20;7.00;;;1.80;99.90;;;;;;5055584;28;20025;-48
2021/12/07 02:32:32;;;;;;;17.50;7.70;;;2.10;99.90;;;;;;5055450;28;20036;-52
2021/12/07 02:34:59;;;;;;;23.15;9.23;;;2.50;99.90;;;;;;5054233;28;20025;-49
2021/12/07 02:37:28;;;;;;;19.95;8.25;;;2.70;99.90;;;;;;5055370;28;20055;-55
2021/12/07 02:39:55;;;;;;;17.25;7.18;;;2.90;99.90;;;;;;5054509;28;20032;-52
2021/12/07 02:42:21;;;;;;;11.65;5.38;;;3.00;99.90;;;;;;5055622;28;20103;-50
2021/12/07 02:44:47;;;;;;;15.73;6.20;;;3.10;99.90;;;;;;5055360;28;20021;-54
2021/12/07 02:47:13;;;;;;;12.05;5.10;;;3.30;99.90;;;;;;5054096;28;20036;-49
2021/12/07 02:49:39;;;;;;;7.63;3.97;;;3.50;99.90;;;;;;5054086;28;20025;-51
2021/12/07 02:52:06;;;;;;;9.02;3.80;;;3.40;99.90;;;;;;5053930;28;20067;-51
2021/12/07 02:54:33;;;;;;;6.53;3.33;;;3.50;99.90;;;;;;5054781;28;20029;-51
2021/12/07 02:56:58;;;;;;;3.88;2.78;;;3.60;99.90;;;;;;5055396;28;20036;-48
2021/12/07 02:59:26;;;;;;;4.60;3.13;;;3.50;99.90;;;;;;5053827;28;20116;-49
2021/12/07 03:02:01;;;;;;;5.38;2.47;;;3.60;99.90;;;;;;5054972;28;20025;-48
2021/12/07 03:04:39;;;;;;;4.85;2.17;;;3.70;99.90;;;;;;5055337;28;20025;-49
2021/12/07 03:07:15;;;;;;;4.60;2.50;;;3.70;99.90;;;;;;5054965;28;20028;-49
2021/12/07 03:26:07;;;;;;;0.90;0.60;;;3.50;99.90;;;;;;5055073;28;20063;-50
2021/12/07 03:28:37;;;;;;;3.53;1.52;;;3.50;99.90;;;;;;5054885;28;20049;-49
2021/12/07 03:31:03;;;;;;;6.78;1.30;;;3.40;99.90;;;;;;5053654;28;20021;-48
2021/12/07 03:33:29;;;;;;;2.75;1.15;;;3.50;99.90;;;;;;5054486;28;20021;-48
2021/12/07 03:35:55;;;;;;;1.85;0.90;;;3.50;99.90;;;;;;5054696;28;20028;-50
2021/12/07 03:38:21;;;;;;;0.82;0.57;;;3.40;99.90;;;;;;5054340;28;20047;-51
2021/12/07 03:40:47;;;;;;;0.75;0.57;;;3.40;99.90;;;;;;5053083;28;20021;-49
2021/12/07 03:43:14;;;;;;;1.73;0.70;;;3.60;99.90;;;;;;5052932;28;20029;-51
2021/12/07 03:45:40;;;;;;;0.90;0.80;;;3.50;99.90;;;;;;5054281;28;20029;-52
2021/12/07 03:48:08;;;;;;;0.65;0.57;;;3.60;99.90;;;;;;5054179;28;20043;-50
2021/12/07 03:50:34;;;;;;;1.70;0.63;;;3.60;99.90;;;;;;5054350;28;20079;-51
2021/12/07 03:53:00;;;;;;;9.88;3.00;;;3.60;99.90;;;;;;5054081;28;20021;-50
2021/12/07 03:55:25;;;;;;;2.05;0.80;;;3.60;99.90;;;;;;5052641;28;20029;-49
2021/12/07 03:57:51;;;;;;;1.75;1.10;;;3.70;99.90;;;;;;5052780;28;20017;-51
2021/12/07 04:00:20;;;;;;;5.50;1.48;;;3.60;99.90;;;;;;5052822;28;20025;-52
2021/12/07 04:02:46;;;;;;;1.08;0.73;;;3.50;99.90;;;;;;5053456;28;20075;-50
2021/12/07 04:05:15;;;;;;;3.30;1.60;;;3.60;99.90;;;;;;5052243;28;20052;-53
2021/12/07 04:07:42;;;;;;;3.28;1.60;;;3.50;99.90;;;;;;5052565;28;20039;-50
2021/12/07 04:10:13;;;;;;;2.70;1.42;;;3.60;99.90;;;;;;5054114;28;20032;-51
2021/12/07 04:12:40;;;;;;;2.95;1.30;;;3.60;99.90;;;;;;5053653;28;20039;-52
2021/12/07 04:15:09;;;;;;;5.07;2.00;;;3.70;99.90;;;;;;5052375;28;20029;-48
2021/12/07 04:17:35;;;;;;;2.33;1.10;;;3.70;99.90;;;;;;5053792;28;20028;-50
2021/12/07 04:20:03;;;;;;;1.90;1.00;;;3.60;99.90;;;;;;5052423;28;20053;-53
2021/12/07 04:22:29;;;;;;;1.35;1.17;;;3.60;99.90;;;;;;5052694;28;20021;-52
2021/12/07 04:24:54;;;;;;;2.95;1.10;;;3.70;99.90;;;;;;5053590;28;20107;-48
2021/12/07 04:27:20;;;;;;;2.63;1.45;;;3.70;99.90;;;;;;5053502;28;20104;-48
2021/12/07 04:29:46;;;;;;;6.53;2.00;;;3.70;99.90;;;;;;5052473;28;20397;-50
2021/12/07 04:32:12;;;;;;;1.50;1.15;;;3.70;99.90;;;;;;5053462;28;20096;-50
2021/12/07 04:34:38;;;;;;;1.30;1.20;;;3.70;99.90;;;;;;5052289;28;20120;-51
2021/12/07 04:37:04;;;;;;;1.25;0.90;;;3.80;99.90;;;;;;5052195;28;20025;-48
2021/12/07 04:39:30;;;;;;;0.95;0.85;;;3.70;99.90;;;;;;5053399;28;20163;-49
2021/12/07 04:41:56;;;;;;;1.35;1.05;;;3.70;99.90;;;;;;5052389;28;20017;-50
2021/12/07 04:44:22;;;;;;;2.72;1.40;;;3.80;99.90;;;;;;5051895;28;20029;-48
2021/12/07 04:57:44;;;;;;;0.75;0.65;;;3.80;99.90;;;;;;5053712;28;20387;-51
2021/12/07 05:00:25;;;;;;;2.35;0.50;;;3.90;99.90;;;;;;5053154;28;20488;-48
2021/12/07 05:03:00;;;;;;;0.65;0.60;;;3.90;99.90;;;;;;5051829;28;20029;-51
2021/12/07 05:05:32;;;;;;;0.75;0.60;;;3.80;99.90;;;;;;5051878;28;20031;-51
2021/12/07 05:08:01;;;;;;;2.08;0.90;;;3.90;99.90;;;;;;5051843;28;20044;-51
2021/12/07 05:15:27;;;;;;;1.55;0.82;;;3.80;99.90;;;;;;5053590;28;20063;-52
2021/12/07 05:18:09;;;;;;;1.40;0.80;;;3.90;99.90;;;;;;5057348;28;20024;-50
2021/12/07 05:39:37;;;;;;;5.07;1.10;;;4.00;99.90;;;;;;5056966;28;20032;-49
2021/12/07 05:42:03;;;;;;;1.70;0.90;;;4.00;99.90;;;;;;5055967;28;20021;-51
2021/12/07 05:44:28;;;;;;;3.88;1.50;;;4.10;99.90;;;;;;5056462;28;20025;-53
2021/12/07 05:46:54;;;;;;;2.17;1.25;;;4.10;99.90;;;;;;5056634;28;20487;-48
2021/12/07 05:49:20;;;;;;;2.50;1.13;;;4.10;99.90;;;;;;5056523;28;20021;-52
2021/12/07 05:51:46;;;;;;;5.50;1.10;;;4.20;99.90;;;;;;5055137;28;20029;-54
2021/12/07 05:54:12;;;;;;;2.15;1.30;;;4.20;99.90;;;;;;5054935;28;20033;-48
2021/12/07 05:56:37;;;;;;;2.65;1.00;;;4.10;99.90;;;;;;5056264;28;20036;-52
2021/12/07 05:59:03;;;;;;;3.35;1.60;;;4.10;99.90;;;;;;5056518;28;20460;-50
2021/12/07 06:01:29;;;;;;;2.45;1.42;;;4.20;99.90;;;;;;5055364;28;20098;-53
2021/12/07 06:03:55;;;;;;;4.82;1.80;;;4.10;99.90;;;;;;5056592;28;20476;-51
2021/12/07 06:06:20;;;;;;;4.82;1.95;;;4.10;99.90;;;;;;5056356;28;20031;-49
2021/12/07 06:08:46;;;;;;;4.32;1.80;;;4.10;99.90;;;;;;5054857;28;20043;-49
2021/12/07 06:11:11;;;;;;;1.83;1.52;;;4.10;99.90;;;;;;5056039;28;20028;-48
2021/12/07 06:13:37;;;;;;;3.50;2.25;;;4.00;99.90;;;;;;5055908;28;20090;-49
2021/12/07 06:16:07;;;;;;;2.85;1.70;;;4.00;99.90;;;;;;5055600;28;20025;-48
2021/12/07 06:18:34;;;;;;;7.72;1.90;;;4.00;99.90;;;;;;5054592;28;20514;-50
2021/12/07 06:20:59;;;;;;;4.60;2.92;;;4.00;99.90;;;;;;5055409;28;20055;-50
2021/12/07 06:23:25;;;;;;;4.70;3.08;;;4.00;99.90;;;;;;5055682;28;20017;-49
2021/12/07 06:25:54;;;;;;;5.10;3.33;;;4.00;99.90;;;;;;5054357;28;20112;-50
2021/12/07 06:28:20;;;;;;;7.50;2.50;;;4.00;99.90;;;;;;5054710;28;20040;-51
2021/12/07 06:30:47;;;;;;;6.65;3.83;;;4.00;99.90;;;;;;5054449;28;20055;-51
2021/12/07 06:33:15;;;;;;;8.60;4.28;;;3.90;99.90;;;;;;5054267;28;20025;-50
2021/12/07 06:35:41;;;;;;;5.78;3.00;;;3.90;99.90;;;;;;5055034;28;20037;-49
2021/12/07 06:38:08;;;;;;;4.18;2.40;;;3.80;99.90;;;;;;5055831;28;20021;-49
2021/12/07 06:40:33;;;;;;;10.27;3.70;;;3.70;99.90;;;;;;5054211;28;20634;-50
2021/12/07 06:43:00;;;;;;;9.10;3.92;;;3.70;99.90;;;;;;5055366;28;20056;-51
2021/12/07 06:45:27;;;;;;;8.23;4.15;;;3.80;99.90;;;;;;5055476;28;20025;-51
2021/12/07 06:47:54;;;;;;;8.75;4.28;;;3.80;99.90;;;;;;5055635;28;20027;-49
2021/12/07 06:50:20;;;;;;;15.30;5.60;;;3.90;99.90;;;;;;5054451;28;20027;-49
2021/12/07 06:52:47;;;;;;;13.13;5.60;;;3.90;99.90;;;;;;5055222;28;20040;-49
2021/12/07 06:55:13;;;;;;;10.32;5.32;;;3.90;99.90;;;;;;5054097;28;20025;-48
2021/12/07 06:57:39;;;;;;;14.57;5.78;;;3.90;99.90;;;;;;5054698;28;20047;-49
2021/12/07 07:00:07;;;;;;;8.50;3.72;;;3.80;99.90;;;;;;5055157;28;20020;-48
2021/12/07 07:02:33;;;;;;;12.50;4.97;;;3.70;99.90;;;;;;5053695;28;20028;-51
2021/12/07 07:04:59;;;;;;;15.38;6.57;;;3.70;99.90;;;;;;5055047;28;20033;-49
2021/12/07 07:07:24;;;;;;;20.40;9.48;;;3.70;99.90;;;;;;5055340;28;20036;-49
2021/12/07 07:09:51;;;;;;;18.42;8.68;;;3.60;99.90;;;;;;5053724;28;20044;-50
2021/12/07 07:12:17;;;;;;;14.82;7.43;;;3.70;99.90;;;;;;5055460;28;20029;-49
2021/12/07 07:14:42;;;;;;;17.38;7.88;;;3.80;99.90;;;;;;5053238;28;20028;-50
2021/12/07 07:17:08;;;;;;;11.65;6.68;;;3.80;99.90;;;;;;5053540;28;20526;-50
2021/12/07 07:19:34;;;;;;;14.43;6.35;;;3.80;99.90;;;;;;5053773;28;20025;-48
2021/12/07 07:22:01;;;;;;;14.55;8.20;;;3.70;99.90;;;;;;5053676;28;20021;-48
2021/12/07 07:24:29;;;;;;;17.77;8.70;;;3.70;99.90;;;;;;5054452;28;20017;-50
2021/12/07 07:26:55;;;;;;;22.88;8.38;;;3.90;99.90;;;;;;5053917;28;20470;-49
2021/12/07 07:29:20;;;;;;;19.50;8.65;;;3.80;99.90;;;;;;5053633;28;20110;-49
2021/12/07 07:31:46;;;;;;;25.95;8.48;;;3.80;99.90;;;;;;5053231;28;20028;-48
2021/12/07 07:34:11;;;;;;;25.52;8.57;;;3.80;99.90;;;;;;5053226;28;20402;-50
2021/12/07 07:36:37;;;;;;;31.77;11.00;;;3.70;99.90;;;;;;5054473;28;20027;-48
2021/12/07 07:39:03;;;;;;;27.20;9.82;;;3.70;99.90;;;;;;5052362;28;20112;-48
2021/12/07 07:41:29;;;;;;;32.00;10.45;;;3.80;99.90;;;;;;5053376;28;20021;-48
2021/12/07 07:43:55;;;;;;;39.58;12.07;;;3.90;99.90;;;;;;5054158;28;20036;-52
2021/12/07 07:46:20;;;;;;;51.13;18.27;;;3.90;99.90;;;;;;5052986;28;20128;-49
2021/12/07 07:48:46;;;;;;;31.77;12.40;;;3.80;99.90;;;;;;5052953;28;20021;-50
2021/12/07 07:51:12;;;;;;;51.75;19.17;;;3.90;99.90;;;;;;5054177;28;20060;-51
2021/12/07 07:53:38;;;;;;;32.25;12.55;;;3.90;99.90;;;;;;5052821;28;20115;-52
2021/12/07 07:56:04;;;;;;;41.33;15.98;;;4.00;99.90;;;;;;5053723;28;20032;-50
2021/12/07 07:58:30;;;;;;;30.25;11.18;;;4.10;99.90;;;;;;5053983;28;20021;-49
2021/12/07 08:00:56;;;;;;;22.45;8.77;;;4.10;99.90;;;;;;5054516;28;20074;-51
2021/12/07 08:03:22;;;;;;;22.15;9.45;;;4.30;99.90;;;;;;5053900;28;20035;-49
2021/12/07 08:05:48;;;;;;;17.05;7.15;;;4.30;99.90;;;;;;5052562;28;20029;-49
2021/12/07 08:08:13;;;;;;;26.88;7.43;;;4.40;99.90;;;;;;5054134;28;20135;-51
2021/12/07 08:10:39;;;;;;;23.95;8.15;;;4.50;99.90;;;;;;5052629;28;20025;-52
2021/12/07 08:13:07;;;;;;;20.42;9.50;;;4.50;99.90;;;;;;5052438;28;20025;-52
2021/12/07 08:15:37;;;;;;;20.75;7.97;;;4.40;99.90;;;;;;5052335;28;20029;-51
2021/12/07 08:18:04;;;;;;;20.27;6.80;;;4.50;99.90;;;;;;5052447;28;20032;-51
2021/12/07 08:20:30;;;;;;;12.95;6.50;;;4.50;99.90;;;;;;5052328;28;20074;-49
2021/12/07 08:22:55;;;;;;;18.48;7.22;;;4.50;99.90;;;;;;5053945;28;20025;-49
2021/12/07 08:25:21;;;;;;;17.88;7.28;;;4.60;99.90;;;;;;5053558;28;20028;-54
2021/12/07 08:27:48;;;;;;;24.67;8.82;;;4.60;99.90;;;;;;5053556;28;20028;-50
2021/12/07 08:30:15;;;;;;;25.88;7.50;;;4.70;99.90;;;;;;5053300;28;20031;-51
2021/12/07 08:32:45;;;;;;;23.27;7.85;;;4.70;99.90;;;;;;5053369;28;20036;-55
2021/12/07 08:35:15;;;;;;;79.57;30.08;;;4.70;99.90;;;;;;5054127;28;20024;-50
2021/12/07 08:37:44;;;;;;;45.17;18.70;;;4.70;99.90;;;;;;5053348;28;20017;-55
2021/12/07 08:40:10;;;;;;;31.80;14.10;;;4.70;99.90;;;;;;5053425;28;20104;-52
2021/12/07 08:42:37;;;;;;;19.40;9.98;;;4.60;99.90;;;;;;5052251;28;20064;-49
2021/12/07 08:45:05;;;;;;;25.45;10.65;;;4.60;99.90;;;;;;5053411;28;20029;-49
2021/12/07 08:47:30;;;;;;;22.73;8.32;;;4.70;99.90;;;;;;5053344;28;20029;-49
2021/12/07 08:49:57;;;;;;;20.75;7.10;;;4.80;99.90;;;;;;5053405;28;20036;-49
2021/12/07 08:52:23;;;;;;;22.88;7.20;;;5.20;99.90;;;;;;5053085;28;20029;-49
2021/12/07 09:00:00;;;;;;;15.02;4.82;;;5.70;99.90;;;;;;5054066;28;20044;-49
2021/12/07 09:02:26;;;;;;;12.75;5.25;;;5.70;99.90;;;;;;5052625;28;20021;-49
2021/12/07 09:04:54;;;;;;;16.48;5.00;;;5.70;99.90;;;;;;5053045;28;20418;-49
2021/12/07 09:07:21;;;;;;;15.02;5.07;;;5.70;99.90;;;;;;5052121;28;20036;-47
2021/12/07 09:09:47;;;;;;;19.63;5.05;;;5.70;99.90;;;;;;5053586;28;20066;-50
2021/12/07 09:12:15;;;;;;;17.08;5.45;;;5.70;99.90;;;;;;5051771;28;20112;-49
2021/12/07 09:14:42;;;;;;;8.38;4.63;;;5.80;99.90;;;;;;5052807;28;20025;-50
2021/12/07 09:17:11;;;;;;;13.27;5.90;;;5.80;99.90;;;;;;5053006;28;20028;-53
2021/12/07 09:19:38;;;;;;;17.85;3.95;;;5.90;99.90;;;;;;5053051;28;20080;-50
2021/12/07 09:22:05;;;;;;;14.75;6.32;;;6.00;99.90;;;;;;5052139;28;20017;-52
2021/12/07 09:24:32;;;;;;;13.63;4.20;;;6.00;99.90;;;;;;5053186;28;20473;-55
2021/12/07 09:26:58;;;;;;;16.42;3.78;;;6.10;99.90;;;;;;5051662;28;20029;-54
2021/12/07 09:29:24;;;;;;;10.57;3.53;;;6.10;99.90;;;;;;5051626;28;20029;-49
2021/12/07 09:31:50;;;;;;;19.80;5.05;;;6.20;99.90;;;;;;5052206;28;20028;-52
2021/12/07 09:34:17;;;;;;;20.35;5.20;;;6.10;99.90;;;;;;5051427;28;20467;-51
2021/12/07 09:36:44;;;;;;;10.77;3.72;;;6.20;99.90;;;;;;5051509;28;20025;-51
2021/12/07 09:39:13;;;;;;;17.20;3.72;;;6.10;99.90;;;;;;5052985;28;20078;-48
2021/12/07 09:41:39;;;;;;;7.93;3.58;;;6.20;99.90;;;;;;5052000;28;20044;-48
2021/12/07 09:44:07;;;;;;;15.30;4.20;;;6.20;99.90;;;;;;5052855;28;20061;-49
2021/12/07 09:46:33;;;;;;;9.27;3.97;;;6.20;99.90;;;;;;5051739;28;20047;-47
2021/12/07 09:48:59;;;;;;;9.85;3.22;;;6.10;99.90;;;;;;5051728;28;20025;-49
2021/12/07 09:51:27;;;;;;;13.60;3.60;;;6.20;99.90;;;;;;5051659;28;20021;-52
2021/12/07 09:53:53;;;;;;;7.63;3.72;;;6.20;99.90;;;;;;5052517;28;20479;-51
2021/12/07 09:56:22;;;;;;;13.98;3.30;;;6.20;99.90;;;;;;5051405;28;20024;-51
2021/12/07 09:58:51;;;;;;;13.07;3.92;;;6.20;99.90;;;;;;5051307;28;20120;-53
2021/12/07 10:01:18;;;;;;;10.77;3.30;;;6.30;99.90;;;;;;5051558;28;20035;-51
2021/12/07 10:03:44;;;;;;;11.95;3.75;;;6.30;99.90;;;;;;5055145;28;20017;-51
2021/12/07 10:06:10;;;;;;;13.10;4.38;;;6.30;99.90;;;;;;5054935;28;20079;-54
2021/12/07 10:08:36;;;;;;;11.63;3.40;;;6.30;99.90;;;;;;5055065;28;20109;-49
2021/12/07 10:11:04;;;;;;;14.48;4.75;;;6.30;99.90;;;;;;5055619;28;20025;-48
2021/12/07 10:13:31;;;;;;;15.27;4.22;;;6.30;99.90;;;;;;5055960;28;20043;-50
2021/12/07 10:15:59;;;;;;;11.60;4.10;;;6.20;99.90;;;;;;5055829;28;20091;-51
2021/12/07 10:18:27;;;;;;;8.10;4.28;;;6.20;99.90;;;;;;5055893;28;20075;-51
2021/12/07 10:20:59;;;;;;;4.75;1.90;;;6.20;99.90;;;;;;5054576;28;20048;-51
2021/12/07 10:23:27;;;;;;;7.72;2.80;;;6.20;99.90;;;;;;5055734;28;20103;-49
2021/12/07 10:26:25;;;;;;;7.75;2.67;;;6.30;99.90;;;;;;5054749;28;20021;-52
2021/12/07 10:28:58;;;;;;;10.85;2.72;;;6.30;99.90;;;;;;5055360;28;20052;-50
2021/12/07 10:31:35;;;;;;;6.10;2.08;;;6.30;99.90;;;;;;5054480;28;20056;-49
2021/12/07 10:34:04;;;;;;;10.68;2.30;;;6.30;99.90;;;;;;5054870;28;20031;-49
2021/12/07 10:36:33;;;;;;;5.95;2.33;;;6.30;99.90;;;;;;5054304;28;20021;-53
2021/12/07 10:39:06;;;;;;;16.77;4.07;;;6.40;99.90;;;;;;5055573;28;20027;-54
2021/12/07 10:41:38;;;;;;;8.35;2.70;;;6.50;99.90;;;;;;5056106;28;20021;-53
2021/12/07 10:44:10;;;;;;;10.20;2.22;;;6.60;99.90;;;;;;5054198;28;20070;-50
2021/12/07 10:46:41;;;;;;;9.23;4.20;;;6.70;99.90;;;;;;5055362;28;20390;-52
2021/12/07 10:49:35;;;;;;;12.30;4.47;;;6.70;99.90;;;;;;5054978;28;20025;-50
2021/12/07 10:52:11;;;;;;;15.15;5.20;;;6.80;99.90;;;;;;5053193;28;20178;-53
2021/12/07 10:54:46;;;;;;;14.75;4.07;;;6.80;99.90;;;;;;5054047;28;20040;-52
2021/12/07 10:57:19;;;;;;;13.15;4.72;;;6.90;99.90;;;;;;5055242;28;20021;-49
2021/12/07 10:59:57;;;;;;;13.77;5.15;;;6.90;99.90;;;;;;5053976;28;20017;-51
2021/12/07 11:02:27;;;;;;;14.30;4.30;;;6.80;99.90;;;;;;5055695;28;20071;-52
2021/12/07 11:04:52;;;;;;;16.08;4.75;;;6.90;99.90;;;;;;5055110;28;20029;-52
2021/12/07 11:07:18;;;;;;;22.17;4.82;;;6.90;99.90;;;;;;5055182;28;20028;-50
2021/12/07 11:10:22;;;;;;;12.40;4.00;;;7.00;99.90;;;;;;5055336;28;20028;-51
2021/12/07 11:13:35;;;;;;;10.57;2.65;;;7.00;99.90;;;;;;5055182;28;20021;-51
2021/12/07 11:16:01;;;;;;;11.48;3.22;;;7.20;99.90;;;;;;5056956;28;20037;-53
2021/12/07 11:18:55;;;;;;;16.45;4.30;;;7.20;99.90;;;;;;5054487;28;20379;-55
2021/12/07 11:21:20;;;;;;;11.88;4.07;;;7.30;99.90;;;;;;5052855;28;20033;-48
2021/12/07 11:23:49;;;;;;;18.33;5.20;;;7.50;99.90;;;;;;5053395;28;20024;-52
2021/12/07 11:31:32;;;;;;;18.67;3.65;;;7.90;99.90;;;;;;5055217;28;20036;-49
2021/12/07 11:34:20;;;;;;;11.00;3.75;;;7.80;99.90;;;;;;5054762;28;20032;-49
2021/12/07 11:36:48;;;;;;;32.13;9.50;;;7.70;99.90;;;;;;5053220;28;20479;-49
2021/12/07 11:39:32;;;;;;;30.60;11.98;;;7.60;99.90;;;;;;5053255;28;20021;-52
2021/12/07 11:42:04;;;;;;;12.95;5.03;;;7.40;99.90;;;;;;5054431;28;20074;-49
2021/12/07 11:44:54;;;;;;;9.05;4.95;;;7.30;99.90;;;;;;5054170;28;20029;-51
2021/12/07 11:47:48;;;;;;;8.10;3.33;;;7.20;99.90;;;;;;5053947;28;20021;-51
2021/12/07 11:50:25;;;;;;;4.55;1.88;;;7.10;99.90;;;;;;5053306;28;20025;-49
2021/12/07 11:52:55;;;;;;;5.35;2.85;;;7.00;99.90;;;;;;5054300;28;20021;-49
2021/12/07 11:55:20;;;;;;;13.98;3.13;;;6.90;99.90;;;;;;5053154;28;20037;-50
2021/12/07 11:57:47;;;;;;;14.13;4.18;;;6.80;99.90;;;;;;5053175;28;20361;-51
2021/12/07 12:00:18;;;;;;;8.85;3.10;;;6.80;99.90;;;;;;5053123;28;20071;-53
2021/12/07 12:02:44;;;;;;;;;;;6.80;99.90;;;;;;5054357;28;20039;-51
2021/12/07 12:05:11;;;;;;;12.50;3.28;;;6.80;99.90;;;;;;5054266;28;19904;-50
2021/12/07 12:07:41;;;;;;;9.98;2.15;;;6.80;99.90;;;;;;5053865;28;20119;-49
2021/12/07 12:10:08;;;;;;;9.02;2.17;;;6.80;99.90;;;;;;5052508;28;20036;-52
2021/12/07 12:12:45;;;;;;;10.00;4.07;;;6.80;99.90;;;;;;5054253;28;20077;-51
2021/12/07 12:15:20;;;;;;;21.83;7.82;;;6.80;99.90;;;;;;5054161;28;20029;-49
2021/12/07 12:18:00;;;;;;;15.80;5.28;;;6.70;99.90;;;;;;5054060;28;20096;-54
2021/12/07 12:20:56;;;;;;;7.15;1.75;;;6.80;99.90;;;;;;5052518;28;20108;-51
2021/12/07 12:23:41;;;;;;;6.88;1.80;;;6.90;99.90;;;;;;5052538;28;20037;-49
2021/12/07 12:26:10;;;;;;;6.78;2.05;;;6.90;99.90;;;;;;5053244;28;20028;-48
2021/12/07 12:28:41;;;;;;;6.88;1.88;;;7.00;99.90;;;;;;5052352;28;20025;-49
2021/12/07 12:31:09;;;;;;;3.88;1.67;;;7.10;99.90;;;;;;5052405;28;20025;-52
2021/12/07 12:33:51;;;;;;;9.38;1.98;;;7.10;99.90;;;;;;5053359;28;20116;-48
2021/12/07 12:36:21;;;;;;;6.32;2.15;;;7.20;99.90;;;;;;5053441;28;20036;-49
2021/12/07 12:39:04;;;;;;;4.20;1.38;;;7.20;99.90;;;;;;5053979;28;20020;-51
2021/12/07 12:41:30;;;;;;;12.15;3.10;;;7.20;99.90;;;;;;5053638;28;20027;-49
2021/12/07 12:44:07;;;;;;;5.40;2.08;;;7.10;99.90;;;;;;5052098;28;20119;-51
2021/12/07 12:46:35;;;;;;;6.90;2.10;;;7.10;99.90;;;;;;5052994;28;20138;-55
2021/12/07 12:49:11;;;;;;;7.47;1.17;;;7.10;99.90;;;;;;5052071;28;20479;-51
2021/12/07 12:51:49;;;;;;;3.75;1.30;;;7.10;99.90;;;;;;5053313;28;20024;-50
2021/12/07 12:54:16;;;;;;;6.35;1.30;;;7.10;99.90;;;;;;5053046;28;20033;-53
2021/12/07 12:56:42;;;;;;;8.38;2.05;;;7.10;99.90;;;;;;5051944;28;20030;-53
2021/12/07 12:59:10;;;;;;;5.97;1.50;;;7.00;99.90;;;;;;5051897;28;20020;-48
2021/12/07 13:01:39;;;;;;;6.38;1.65;;;7.00;99.90;;;;;;5051710;28;20021;-54
2021/12/07 13:04:13;;;;;;;6.47;1.42;;;7.00;99.90;;;;;;5053102;28;20017;-51
2021/12/07 13:09:45;;;;;;;6.15;1.52;;;7.00;99.90;;;;;;5053732;28;20108;-50
2021/12/07 13:12:17;;;;;;;6.65;1.20;;;6.90;99.90;;;;;;5051828;28;20063;-48
2021/12/07 13:14:49;;;;;;;15.63;1.85;;;6.90;99.90;;;;;;5052861;28;20096;-52
2021/12/07 13:17:27;;;;;;;5.45;1.40;;;6.90;99.90;;;;;;5051736;28;20039;-49
2021/12/07 13:20:07;;;;;;;5.47;1.38;;;6.90;99.90;;;;;;5053296;28;20032;-50
2021/12/07 13:22:49;;;;;;;6.25;1.27;;;6.80;99.90;;;;;;5052973;28;20080;-51
2021/12/07 13:25:26;;;;;;;10.18;1.48;;;6.90;99.90;;;;;;5051683;28;20079;-53
2021/12/07 13:28:10;;;;;;;9.05;1.40;;;6.90;99.90;;;;;;5051716;28;20055;-47
2021/12/07 13:30:49;;;;;;;6.53;1.02;;;6.80;99.90;;;;;;5051693;28;20064;-51
2021/12/07 13:33:29;;;;;;;2.60;0.80;;;6.80;99.90;;;;;;5051503;28;20025;-52
2021/12/07 13:35:55;;;;;;;4.85;1.15;;;6.70;99.90;;;;;;5053049;28;20083;-54
2021/12/07 13:38:27;;;;;;;7.30;1.20;;;6.70;99.90;;;;;;5055442;28;20028;-50
2021/12/07 13:41:13;;;;;;;5.40;1.48;;;6.70;99.90;;;;;;5056638;28;20021;-49
2021/12/07 13:43:40;;;;;;;5.28;1.17;;;6.70;99.90;;;;;;5054829;28;20028;-48
2021/12/07 13:46:19;;;;;;;3.22;1.30;;;6.60;99.90;;;;;;5055390;28;20021;-53
2021/12/07 13:48:48;;;;;;;5.28;0.95;;;6.60;99.90;;;;;;5056510;28;20413;-51
2021/12/07 13:51:18;;;;;;;1.17;0.73;;;6.60;99.90;;;;;;5055560;28;20025;-52
2021/12/07 13:53:45;;;;;;;4.32;1.15;;;6.60;99.90;;;;;;5056301;28;20071;-51
2021/12/07 13:56:11;;;;;;;5.10;1.67;;;6.70;99.90;;;;;;5055086;28;20029;-49
2021/12/07 13:58:59;;;;;;;3.78;1.30;;;6.70;99.90;;;;;;5056555;28;20428;-49
2021/12/07 14:01:27;;;;;;;10.40;1.40;;;6.70;99.90;;;;;;5056571;28;20025;-52
2021/12/07 14:03:53;;;;;;;2.75;1.27;;;6.60;99.90;;;;;;5056830;28;20033;-53
2021/12/07 14:06:19;;;;;;;6.25;2.20;;;6.60;99.90;;;;;;5054964;28;20025;-51
2021/12/07 14:08:45;;;;;;;7.07;2.30;;;6.50;99.90;;;;;;5054913;28;20021;-52
2021/12/07 14:11:16;;;;;;;9.48;2.67;;;6.50;99.90;;;;;;5054895;28;20027;-48
2021/12/07 14:13:49;;;;;;;3.88;1.65;;;6.50;99.90;;;;;;5054795;28;20021;-48
2021/12/07 14:16:21;;;;;;;3.28;1.80;;;6.30;99.90;;;;;;5054782;28;20037;-51
2021/12/07 14:18:46;;;;;;;7.00;2.13;;;6.30;99.90;;;;;;5054961;28;20017;-52
2021/12/07 14:21:12;;;;;;;8.13;1.80;;;6.30;99.90;;;;;;5054645;28;20083;-51
2021/12/07 14:23:44;;;;;;;9.73;1.60;;;6.30;99.90;;;;;;5054592;28;20079;-53
2021/12/07 14:26:15;;;;;;;6.65;1.40;;;6.30;99.90;;;;;;5055869;28;20056;-50
2021/12/07 14:28:50;;;;;;;5.90;1.50;;;6.30;99.90;;;;;;5055858;28;20107;-52
2021/12/07 14:31:40;;;;;;;4.38;0.80;;;6.40;99.90;;;;;;5054860;28;20032;-49
2021/12/07 14:34:08;;;;;;;5.07;1.33;;;6.40;99.90;;;;;;5055625;28;20078;-49
2021/12/07 14:36:37;;;;;;;9.57;1.60;;;6.50;99.90;;;;;;5055570;28;20017;-53
2021/12/07 14:39:28;;;;;;;5.47;1.17;;;6.70;99.90;;;;;;5055574;28;20024;-51
2021/12/07 14:42:07;;;;;;;7.60;1.27;;;6.80;99.90;;;;;;5055278;28;20481;-52
2021/12/07 14:44:35;;;;;;;6.45;1.58;;;6.90;99.90;;;;;;5054091;28;20059;-53
2021/12/07 14:47:04;;;;;;;4.03;1.08;;;6.80;99.90;;;;;;5053994;28;20032;-52